Terminal Aerodrome Forecast
Issued by NWS

Home | Current Version | Previous Version | Text Only | Print | Product List | Glossary On
Versions: 1 2 3 4 5 6 7 8 9 10 11 12 13 14 15 16 17
722
FTUS41 KPBZ 250952 AAA
TAFBVI
TAF AMD
KBVI 250952Z 2510/2606 19012G22KT 3SM -SHRA SCT015 OVC035
      TEMPO 2511/2513 BKN015
     FM251300 26015G25KT 5SM -SHRA OVC020
     FM251700 27015G25KT P6SM OVC020
     FM252200 28012G22KT P6SM BKN035
      AMD NOT SKED=

USA.gov is the U.S. government's official web portal to all federal, state and local government web resources and services.